Time;durP1;ratioP1;P1;durP2;ratioP2;P2;SDS_P1;SDS_P2;PMS_P1;PMS_P2;Temp;Humidity;BMP_temperature;BMP_pressure;BME280_temperature;BME280_humidity;BME280_pressure;Samples;Min_cycle;Max_cycle;Signal;HPM_P1;HPM_P2
2022/08/27 00:00:16;;;;;;;66.13;12.88;;;;;;;18.60;100.00;97910.97;2603936;28;20076;-93
2022/08/27 00:01:52;;;;;;;23.52;11.07;;;;;;;18.68;100.00;97913.91;2602776;28;20092;-93
2022/08/27 00:03:08;;;;;;;67.05;12.20;;;;;;;18.70;100.00;97911.16;2604532;28;20075;-94
2022/08/27 00:04:23;;;;;;;79.63;14.05;;;;;;;18.72;100.00;97911.88;2602676;28;20049;-94
2022/08/27 00:05:39;;;;;;;24.73;10.70;;;;;;;18.71;100.00;97905.72;2603817;28;20167;-95
2022/08/27 00:06:56;;;;;;;84.75;13.15;;;;;;;18.75;100.00;97907.22;2602255;28;20122;-94
2022/08/27 00:08:12;;;;;;;39.13;10.57;;;;;;;18.75;100.00;97904.56;2604489;28;20052;-94
2022/08/27 00:09:28;;;;;;;25.67;10.45;;;;;;;18.78;100.00;97898.19;2603404;28;20094;-95
2022/08/27 00:10:44;;;;;;;33.13;11.43;;;;;;;18.76;100.00;97903.63;2604451;28;20056;-94
2022/08/27 00:12:00;;;;;;;44.40;11.48;;;;;;;18.75;100.00;97901.06;2602874;28;20049;-94
2022/08/27 00:13:16;;;;;;;118.35;12.60;;;;;;;18.80;100.00;97906.03;2604298;28;20053;-94
2022/08/27 00:14:32;;;;;;;31.05;10.23;;;;;;;18.71;100.00;97903.06;2602068;28;20056;-95
2022/08/27 00:15:48;;;;;;;51.85;12.10;;;;;;;18.70;100.00;97904.03;2604484;28;20047;-95
2022/08/27 00:17:06;;;;;;;36.50;10.43;;;;;;;18.72;100.00;97901.28;2603427;28;20052;-95
2022/08/27 00:18:21;;;;;;;187.30;16.98;;;;;;;18.77;100.00;97912.41;2603565;28;20466;-95
2022/08/27 00:19:37;;;;;;;118.32;12.95;;;;;;;18.78;100.00;97914.97;2603195;28;20379;-93
2022/08/27 00:20:53;;;;;;;27.55;8.90;;;;;;;18.77;100.00;97910.63;2603405;28;20049;-94
2022/08/27 00:22:09;;;;;;;31.98;10.23;;;;;;;18.80;100.00;97914.88;2602860;28;20408;-94
2022/08/27 00:23:25;;;;;;;29.95;10.30;;;;;;;18.80;100.00;97920.16;2603147;28;20091;-95
2022/08/27 00:24:40;;;;;;;24.80;9.75;;;;;;;18.79;100.00;97921.13;2604153;28;20492;-95
2022/08/27 00:25:56;;;;;;;29.40;9.60;;;;;;;18.80;100.00;97921.97;2602838;28;20049;-94
2022/08/27 00:27:12;;;;;;;60.33;9.77;;;;;;;18.80;100.00;97933.44;2603165;28;20060;-94
2022/08/27 00:28:29;;;;;;;24.98;9.38;;;;;;;18.80;100.00;97929.91;2602789;28;20518;-95
2022/08/27 00:29:46;;;;;;;32.58;9.45;;;;;;;18.71;100.00;97931.41;2604125;28;20084;-95
2022/08/27 00:31:02;;;;;;;18.15;9.60;;;;;;;18.77;100.00;97926.53;2603035;28;20577;-95
2022/08/27 00:32:18;;;;;;;18.48;9.98;;;;;;;18.82;100.00;97930.66;2604359;28;20446;-94
2022/08/27 00:33:35;;;;;;;105.43;11.10;;;;;;;18.79;100.00;97929.09;2602820;28;20353;-95
2022/08/27 00:34:51;;;;;;;17.55;9.38;;;;;;;18.77;100.00;97928.31;2603840;28;20076;-95
2022/08/27 00:36:07;;;;;;;26.58;9.23;;;;;;;18.77;100.00;97926.53;2603060;28;20049;-94
2022/08/27 00:37:23;;;;;;;44.42;9.63;;;;;;;18.73;100.00;97922.41;2604190;28;20060;-95
2022/08/27 00:38:39;;;;;;;84.63;10.57;;;;;;;18.73;100.00;97922.41;2602321;28;20411;-94
2022/08/27 00:39:55;;;;;;;137.85;11.80;;;;;;;18.72;100.00;97927.81;2603793;28;20628;-92
2022/08/27 00:41:12;;;;;;;193.27;14.00;;;;;;;18.58;100.00;97928.78;2602776;28;20150;-94
2022/08/27 00:42:28;;;;;;;156.60;13.88;;;;;;;18.58;100.00;97926.97;2603701;28;20111;-94
2022/08/27 00:43:55;;;;;;;67.95;9.88;;;;;;;18.62;100.00;97928.44;2602943;28;20065;-93
2022/08/27 00:45:14;;;;;;;116.50;10.77;;;;;;;18.65;100.00;97919.44;2603608;28;20049;-95
2022/08/27 00:46:37;;;;;;;97.97;8.90;;;;;;;18.37;100.00;97928.41;2602770;28;20103;-94
2022/08/27 00:47:57;;;;;;;120.03;10.00;;;;;;;18.48;100.00;97925.88;2603234;28;20059;-94
2022/08/27 00:49:56;;;;;;;17.30;8.75;;;;;;;18.60;100.00;97924.22;2602573;28;20049;-95
2022/08/27 00:51:12;;;;;;;130.85;11.65;;;;;;;18.61;100.00;97918.78;2603675;28;20447;-95
2022/08/27 00:52:32;;;;;;;105.15;9.95;;;;;;;18.48;100.00;97917.94;2602970;28;20162;-95
2022/08/27 00:53:48;;;;;;;82.63;10.20;;;;;;;18.55;100.00;97923.66;2603871;28;20040;-95
2022/08/27 00:55:13;;;;;;;111.43;10.52;;;;;;;18.55;100.00;97921.00;2602605;28;20139;-95
2022/08/27 00:56:35;;;;;;;80.95;9.15;;;;;;;18.42;100.00;97923.69;2604114;28;20937;-95
2022/08/27 00:58:20;;;;;;;60.88;8.75;;;;;;;18.40;100.00;97928.22;2602628;28;20495;-95
2022/08/27 00:59:35;;;;;;;111.90;11.57;;;;;;;18.37;100.00;97936.38;2603351;28;20819;-96
2022/08/27 01:00:51;;;;;;;48.83;9.35;;;;;;;18.27;100.00;97936.16;2603966;28;20041;-95
2022/08/27 01:02:19;;;;;;;59.40;8.40;;;;;;;18.31;100.00;97935.00;2603407;28;20052;-95
2022/08/27 01:03:36;;;;;;;59.58;8.90;;;;;;;18.41;100.00;97932.59;2604096;28;20404;-96
2022/08/27 01:05:21;;;;;;;78.70;9.32;;;;;;;18.34;100.00;97932.97;2603002;28;20078;-95
2022/08/27 01:06:37;;;;;;;78.28;9.43;;;;;;;18.44;100.00;97935.88;2602592;28;20049;-95
2022/08/27 01:07:56;;;;;;;51.30;7.80;;;;;;;18.43;100.00;97928.03;2603057;28;20243;-94
2022/08/27 01:09:15;;;;;;;90.53;9.35;;;;;;;18.42;100.00;97936.94;2604133;28;20097;-95
2022/08/27 01:10:32;;;;;;;89.43;10.73;;;;;;;18.35;100.00;97934.69;2602336;28;20052;-94
2022/08/27 01:11:49;;;;;;;98.18;10.13;;;;;;;18.23;100.00;97932.03;2604363;28;20134;-95
2022/08/27 01:13:10;;;;;;;116.78;11.32;;;;;;;18.24;100.00;97945.19;2602082;28;20474;-96
2022/08/27 01:14:27;;;;;;;105.53;11.60;;;;;;;18.27;100.00;97947.63;2604067;28;20497;-95
2022/08/27 01:15:43;;;;;;;82.50;9.70;;;;;;;18.15;100.00;97946.63;2602647;28;20049;-96
2022/08/27 01:17:00;;;;;;;71.55;9.85;;;;;;;18.14;100.00;97942.28;2603980;28;20044;-94
2022/08/27 01:18:18;;;;;;;98.82;13.27;;;;;;;18.25;100.00;97944.22;2601749;28;20495;-95
2022/08/27 01:19:42;;;;;;;98.80;11.13;;;;;;;18.24;100.00;97945.19;2603772;28;20053;-94
2022/08/27 01:21:21;;;;;;;70.30;9.82;;;;;;;18.26;100.00;97945.06;2602308;28;20057;-94
2022/08/27 01:23:02;;;;;;;140.32;13.23;;;;;;;18.20;100.00;97944.53;2603661;28;20061;-95
2022/08/27 01:24:32;;;;;;;93.28;11.35;;;;;;;18.19;100.00;97937.53;2602221;28;20049;-94
2022/08/27 01:25:47;;;;;;;120.18;12.23;;;;;;;18.14;100.00;97939.63;2604031;28;20044;-94
2022/08/27 01:27:07;;;;;;;100.00;10.02;;;;;;;18.15;100.00;97937.84;2604517;28;20458;-94
2022/08/27 01:28:22;;;;;;;115.85;11.23;;;;;;;18.11;100.00;97942.50;2605528;28;20076;-95
2022/08/27 01:29:38;;;;;;;51.42;8.95;;;;;;;18.17;100.00;97944.75;2605094;28;20076;-94
2022/08/27 01:30:54;;;;;;;84.80;9.85;;;;;;;18.11;100.00;97944.31;2605109;28;20053;-95
2022/08/27 01:32:17;;;;;;;33.83;8.55;;;;;;;18.10;100.00;97946.09;2604896;28;20139;-96
2022/08/27 01:33:32;;;;;;;86.35;10.88;;;;;;;18.02;100.00;97946.63;2605599;28;20076;-94
2022/08/27 01:34:49;;;;;;;49.97;8.48;;;;;;;18.01;100.00;97949.31;2604484;28;20052;-94
2022/08/27 01:36:05;;;;;;;46.83;7.75;;;;;;;17.91;100.00;97949.09;2605339;28;20061;-95
2022/08/27 01:37:22;;;;;;;85.53;10.43;;;;;;;17.98;100.00;97954.81;2603721;28;20130;-96
2022/08/27 01:38:38;;;;;;;82.57;10.35;;;;;;;18.07;100.00;97944.50;2605386;28;20053;-94
2022/08/27 01:39:55;;;;;;;82.53;9.77;;;;;;;18.10;100.00;97942.63;2604696;28;20498;-94
2022/08/27 01:41:11;;;;;;;60.95;10.07;;;;;;;18.07;100.00;97943.66;2605487;28;20080;-95
2022/08/27 01:42:30;;;;;;;90.28;10.55;;;;;;;18.14;100.00;97944.94;2604109;28;20037;-93
2022/08/27 01:43:47;;;;;;;102.10;10.90;;;;;;;18.11;100.00;97949.63;2605876;28;20049;-93
2022/08/27 01:45:13;;;;;;;54.30;8.85;;;;;;;18.12;100.00;97946.84;2604389;28;20049;-94
2022/08/27 01:46:29;;;;;;;69.28;10.35;;;;;;;18.12;100.00;97946.84;2605064;28;20061;-93
2022/08/27 01:47:46;;;;;;;60.10;11.13;;;;;;;18.07;100.00;97949.78;2604340;28;20600;-95
2022/08/27 01:49:01;;;;;;;81.63;11.15;;;;;;;18.09;100.00;97947.06;2605243;28;20084;-94
2022/08/27 01:50:21;;;;;;;59.40;10.07;;;;;;;18.14;100.00;97949.41;2604400;28;20053;-93
2022/08/27 01:51:36;;;;;;;110.55;11.32;;;;;;;18.12;100.00;97946.84;2605022;28;20049;-94
2022/08/27 01:52:53;;;;;;;103.30;12.52;;;;;;;18.18;100.00;97946.44;2604726;28;20570;-94
2022/08/27 01:54:09;;;;;;;42.45;10.07;;;;;;;18.22;100.00;97947.06;2605790;28;20052;-94
2022/08/27 01:55:26;;;;;;;101.57;10.93;;;;;;;18.11;100.00;97939.84;2604084;28;20049;-94
2022/08/27 01:56:41;;;;;;;64.45;9.43;;;;;;;18.28;100.00;97945.81;2605081;28;20050;-94
2022/08/27 01:57:57;;;;;;;191.27;13.23;;;;;;;18.27;100.00;97946.75;2604076;28;20056;-94
2022/08/27 01:59:12;;;;;;;172.15;14.95;;;;;;;18.21;100.00;97942.72;2605097;28;20408;-93
2022/08/27 02:00:32;;;;;;;105.13;12.10;;;;;;;18.16;100.00;97939.53;2604572;28;20685;-93
2022/08/27 02:01:48;;;;;;;56.13;9.95;;;;;;;18.12;100.00;97941.53;2604710;28;20049;-93
2022/08/27 02:03:06;;;;;;;119.57;10.90;;;;;;;18.12;100.00;97935.41;2605055;28;20708;-94
2022/08/27 02:04:22;;;;;;;82.43;9.32;;;;;;;18.11;100.00;97939.84;2603809;28;20111;-94
2022/08/27 02:05:38;;;;;;;17.75;8.57;;;;;;;18.20;100.00;97941.88;2604406;28;20191;-95
2022/08/27 02:06:54;;;;;;;170.88;14.15;;;;;;;18.23;100.00;97935.53;2604545;28;20143;-94
2022/08/27 02:08:11;;;;;;;42.10;9.65;;;;;;;18.16;100.00;97932.47;2604994;28;20486;-94
2022/08/27 02:09:27;;;;;;;43.58;11.02;;;;;;;18.23;100.00;97934.69;2604323;28;20060;-94
2022/08/27 02:10:44;;;;;;;122.50;15.18;;;;;;;18.26;100.00;97929.16;2604915;28;20055;-94
2022/08/27 02:11:59;;;;;;;80.85;11.68;;;;;;;18.30;100.00;97928.84;2604317;28;20057;-93
2022/08/27 02:13:16;;;;;;;28.15;9.40;;;;;;;18.29;100.00;97928.94;2605139;28;20060;-94
2022/08/27 02:14:32;;;;;;;93.57;11.65;;;;;;;18.32;100.00;97934.06;2604246;28;20045;-95
2022/08/27 02:15:47;;;;;;;32.95;9.30;;;;;;;18.26;100.00;97931.81;2605270;28;20469;-96
2022/08/27 02:17:03;;;;;;;94.85;10.48;;;;;;;18.19;100.00;97937.53;2604399;28;20648;-94
2022/08/27 02:18:19;;;;;;;40.85;9.85;;;;;;;18.25;100.00;97936.28;2604577;28;20053;-94
2022/08/27 02:19:35;;;;;;;15.52;8.98;;;;;;;18.33;100.00;97931.28;2604837;28;20063;-94
2022/08/27 02:20:50;;;;;;;37.75;10.57;;;;;;;18.31;100.00;97927.06;2605304;28;20258;-93
2022/08/27 02:22:06;;;;;;;45.17;9.35;;;;;;;18.28;100.00;97929.91;2604013;28;20478;-94
2022/08/27 02:23:22;;;;;;;20.88;9.40;;;;;;;18.30;100.00;97928.84;2604697;28;20420;-94
2022/08/27 02:24:38;;;;;;;33.00;10.20;;;;;;;18.35;100.00;97925.91;2604215;28;20502;-95
2022/08/27 02:25:53;;;;;;;33.22;9.68;;;;;;;18.34;100.00;97913.59;2605292;28;20462;-94
2022/08/27 02:27:09;;;;;;;19.02;10.20;;;;;;;18.28;100.00;97921.94;2603739;28;20061;-94
2022/08/27 02:28:25;;;;;;;19.35;10.27;;;;;;;18.27;100.00;97923.78;2604854;28;20076;-93
2022/08/27 02:29:41;;;;;;;21.70;9.90;;;;;;;18.28;100.00;97921.94;2603928;28;20053;-96
2022/08/27 02:30:56;;;;;;;32.35;10.25;;;;;;;18.38;100.00;97925.69;2604413;28;20581;-95
2022/08/27 02:32:13;;;;;;;46.30;10.35;;;;;;;18.42;100.00;97924.50;2605145;28;20056;-95
2022/08/27 02:33:30;;;;;;;30.48;10.25;;;;;;;18.29;100.00;97913.91;2603978;28;20068;-95
2022/08/27 02:34:46;;;;;;;23.70;9.38;;;;;;;18.29;100.00;97913.03;2605002;28;20056;-95
2022/08/27 02:36:03;;;;;;;19.80;9.55;;;;;;;18.23;100.00;97910.84;2604328;28;20488;-94
2022/08/27 02:37:18;;;;;;;47.63;10.05;;;;;;;18.26;100.00;97915.91;2604356;28;20416;-92
2022/08/27 02:38:34;;;;;;;23.10;10.10;;;;;;;18.23;100.00;97914.34;2603664;28;20473;-93
2022/08/27 02:39:50;;;;;;;28.58;9.55;;;;;;;18.24;100.00;97907.22;2604944;28;20049;-93
2022/08/27 02:41:06;;;;;;;20.25;9.27;;;;;;;18.22;100.00;97912.63;2604151;28;20053;-93
2022/08/27 02:42:21;;;;;;;19.73;9.13;;;;;;;18.29;100.00;97911.25;2605123;28;20045;-92
2022/08/27 02:43:37;;;;;;;17.02;9.05;;;;;;;18.30;100.00;97912.97;2604069;28;20344;-93
2022/08/27 02:44:53;;;;;;;44.88;11.02;;;;;;;18.35;100.00;97907.34;2604901;28;20049;-93
2022/08/27 02:46:10;;;;;;;60.63;10.05;;;;;;;18.35;100.00;97907.34;2603926;28;20049;-93
2022/08/27 02:47:27;;;;;;;22.50;9.00;;;;;;;18.33;100.00;97912.75;2604443;28;20052;-93
2022/08/27 02:48:43;;;;;;;32.92;9.93;;;;;;;18.35;100.00;97912.66;2603677;28;20076;-93
2022/08/27 02:49:59;;;;;;;34.60;9.55;;;;;;;18.37;100.00;97910.72;2604889;28;20049;-93
2022/08/27 02:51:14;;;;;;;16.35;9.13;;;;;;;18.37;100.00;97916.03;2603833;28;20099;-92
2022/08/27 02:52:30;;;;;;;52.67;11.23;;;;;;;18.37;100.00;97910.72;2605092;28;20088;-92
2022/08/27 02:53:46;;;;;;;44.70;9.88;;;;;;;18.38;100.00;97912.44;2603576;28;20051;-91
2022/08/27 02:55:02;;;;;;;45.28;9.45;;;;;;;18.28;100.00;97909.56;2604755;28;20492;-93
2022/08/27 02:56:18;;;;;;;19.23;9.35;;;;;;;18.29;100.00;97910.41;2603789;28;20411;-93
2022/08/27 02:57:33;;;;;;;16.05;8.82;;;;;;;18.34;100.00;97908.31;2603428;28;20484;-94
2022/08/27 02:58:49;;;;;;;17.58;8.98;;;;;;;18.38;100.00;97914.25;2605386;28;20048;-93
2022/08/27 03:00:10;;;;;;;17.75;8.68;;;;;;;18.37;100.00;97910.72;2603967;28;20407;-94
2022/08/27 03:01:25;;;;;;;26.42;9.20;;;;;;;18.40;100.00;97910.50;2604422;28;20045;-92
2022/08/27 03:02:41;;;;;;;20.77;8.80;;;;;;;18.32;100.00;97905.75;2604450;28;20055;-93
2022/08/27 03:03:56;;;;;;;20.70;9.27;;;;;;;18.34;100.00;97906.47;2604656;28;20135;-93
2022/08/27 03:05:13;;;;;;;17.38;9.15;;;;;;;18.37;100.00;97901.91;2604217;28;20049;-93
2022/08/27 03:06:30;;;;;;;22.85;9.57;;;;;;;18.37;100.00;97902.78;2605035;28;20056;-93
2022/08/27 03:07:46;;;;;;;28.55;9.68;;;;;;;18.41;100.00;97906.06;2603382;28;20076;-93
2022/08/27 03:09:03;;;;;;;16.38;9.38;;;;;;;18.37;100.00;97902.78;2604704;28;20049;-92
2022/08/27 03:10:19;;;;;;;16.02;9.63;;;;;;;18.37;100.00;97908.09;2603839;28;20049;-93
2022/08/27 03:11:35;;;;;;;20.13;9.90;;;;;;;18.41;100.00;97906.06;2604537;28;20328;-93
2022/08/27 03:12:50;;;;;;;19.08;9.65;;;;;;;18.36;100.00;97909.03;2603800;28;20411;-93
2022/08/27 03:14:06;;;;;;;16.10;9.52;;;;;;;18.35;100.00;97905.53;2604991;28;20222;-93
2022/08/27 03:15:23;;;;;;;13.85;8.70;;;;;;;18.37;100.00;97905.44;2603776;28;20055;-93
2022/08/27 03:16:39;;;;;;;16.13;9.27;;;;;;;18.36;100.00;97901.09;2605217;28;20397;-94
2022/08/27 03:19:30;;;;;;;16.33;9.60;;;;;;;18.38;100.00;97911.59;2604293;28;20488;-93
2022/08/27 03:20:55;;;;;;;16.30;9.45;;;;;;;18.39;100.00;97914.13;2603383;28;20048;-92
2022/08/27 03:22:11;;;;;;;17.75;9.75;;;;;;;18.40;100.00;97915.81;2604791;28;20471;-93
2022/08/27 03:23:32;;;;;;;17.95;9.90;;;;;;;18.36;100.00;97911.69;2603648;28;20955;-94
2022/08/27 03:24:47;;;;;;;18.98;10.00;;;;;;;18.34;100.00;97911.78;2604909;28;20079;-93
2022/08/27 03:26:09;;;;;;;16.65;9.65;;;;;;;18.38;100.00;97912.44;2603567;28;20389;-94
2022/08/27 03:27:24;;;;;;;15.30;9.50;;;;;;;18.39;100.00;97916.78;2604466;28;20546;-93
2022/08/27 03:28:40;;;;;;;22.63;10.60;;;;;;;18.43;100.00;97917.41;2603360;28;20045;-93
2022/08/27 03:29:56;;;;;;;20.20;10.25;;;;;;;18.42;100.00;97911.25;2604935;28;20053;-93
2022/08/27 03:31:25;;;;;;;17.83;10.10;;;;;;;18.44;100.00;97917.31;2603564;28;20048;-93
2022/08/27 03:32:41;;;;;;;19.38;10.88;;;;;;;18.41;100.00;97914.03;2605063;28;20056;-93
2022/08/27 03:34:00;;;;;;;20.38;10.68;;;;;;;18.45;100.00;97920.81;2603105;28;20049;-94
2022/08/27 03:35:18;;;;;;;19.27;10.85;;;;;;;18.46;100.00;97920.72;2604753;28;20055;-93
2022/08/27 03:36:33;;;;;;;18.15;10.80;;;;;;;18.32;100.00;97915.50;2603055;28;20095;-93
2022/08/27 03:37:50;;;;;;;17.48;10.88;;;;;;;18.36;100.00;97917.00;2604205;28;20048;-92
2022/08/27 03:39:05;;;;;;;21.58;11.65;;;;;;;18.42;100.00;97915.72;2603361;28;20068;-93
2022/08/27 03:40:21;;;;;;;21.77;10.77;;;;;;;18.49;100.00;97920.50;2604792;28;20056;-92
2022/08/27 03:41:37;;;;;;;16.65;10.43;;;;;;;18.48;100.00;97910.84;2603565;28;20561;-93
2022/08/27 03:42:52;;;;;;;18.45;10.57;;;;;;;18.48;100.00;97913.50;2604461;28;20479;-92
2022/08/27 03:44:08;;;;;;;14.98;10.13;;;;;;;18.45;100.00;97915.50;2603554;28;20434;-92
2022/08/27 03:45:26;;;;;;;17.67;10.40;;;;;;;18.49;100.00;97912.53;2603298;28;20543;-91
2022/08/27 03:46:41;;;;;;;15.10;9.65;;;;;;;18.55;100.00;97907.75;2604083;28;20041;-92
2022/08/27 03:47:57;;;;;;;16.58;10.43;;;;;;;18.46;100.00;97906.59;2602526;28;20081;-92
2022/08/27 03:49:12;;;;;;;15.90;10.63;;;;;;;18.52;100.00;97906.19;2603811;28;20056;-91
2022/08/27 03:50:28;;;;;;;16.10;10.05;;;;;;;18.49;100.00;97909.03;2603350;28;20053;-92
2022/08/27 03:51:43;;;;;;;16.60;10.40;;;;;;;18.46;100.00;97910.09;2604083;28;20053;-92
2022/08/27 03:53:00;;;;;;;17.48;10.18;;;;;;;18.52;100.00;97911.50;2603166;28;20520;-92
2022/08/27 03:54:15;;;;;;;16.13;10.70;;;;;;;18.56;100.00;97912.09;2604220;28;20080;-91
2022/08/27 03:55:31;;;;;;;17.10;10.80;;;;;;;18.59;100.00;97909.25;2603287;28;20965;-91
2022/08/27 03:56:47;;;;;;;19.17;11.23;;;;;;;18.61;100.00;97913.47;2604269;28;20044;-93
2022/08/27 03:58:03;;;;;;;15.20;9.98;;;;;;;18.63;100.00;97913.38;2602128;28;20478;-92
2022/08/27 03:59:19;;;;;;;18.88;10.27;;;;;;;18.61;100.00;97913.47;2603888;28;20048;-93
2022/08/27 04:00:35;;;;;;;15.75;9.82;;;;;;;18.56;100.00;97904.16;2603226;28;20140;-92
2022/08/27 04:01:51;;;;;;;18.88;11.10;;;;;;;18.62;100.00;97911.69;2604080;28;20305;-92
2022/08/27 04:03:10;;;;;;;16.38;10.77;;;;;;;18.61;100.00;97908.19;2602955;28;20049;-93
2022/08/27 04:04:26;;;;;;;18.95;10.50;;;;;;;18.49;100.00;97909.88;2603778;28;20037;-93
2022/08/27 04:05:42;;;;;;;15.05;9.88;;;;;;;18.44;100.00;97914.66;2603104;28;20057;-93
2022/08/27 04:06:58;;;;;;;17.38;11.05;;;;;;;18.40;100.00;97917.63;2604320;28;20114;-94
2022/08/27 04:08:13;;;;;;;17.27;10.18;;;;;;;18.59;100.00;97919.88;2602607;28;20140;-92
2022/08/27 04:09:29;;;;;;;17.10;10.45;;;;;;;18.61;100.00;97920.59;2604062;28;20056;-92
2022/08/27 04:10:45;;;;;;;17.73;11.32;;;;;;;18.64;100.00;97920.38;2603216;28;20566;-92
2022/08/27 04:12:01;;;;;;;17.02;10.68;;;;;;;18.57;100.00;97916.44;2603146;28;20106;-92
2022/08/27 04:13:16;;;;;;;17.02;10.43;;;;;;;18.58;100.00;97918.16;2603494;28;20053;-91
2022/08/27 04:14:33;;;;;;;18.00;10.75;;;;;;;18.62;100.00;97922.28;2602905;28;20139;-93
2022/08/27 04:15:51;;;;;;;18.23;11.00;;;;;;;18.63;100.00;97913.38;2604723;28;20045;-92
2022/08/27 04:17:06;;;;;;;15.40;10.13;;;;;;;18.64;100.00;97913.25;2602760;28;20053;-92
2022/08/27 04:18:22;;;;;;;20.48;11.13;;;;;;;18.60;100.00;97917.09;2603755;28;20048;-91
2022/08/27 04:19:38;;;;;;;17.95;11.05;;;;;;;18.63;100.00;97918.69;2603408;28;20049;-92
2022/08/27 04:20:54;;;;;;;18.65;11.18;;;;;;;18.66;100.00;97918.47;2604236;28;20100;-92
2022/08/27 04:22:09;;;;;;;17.13;10.85;;;;;;;18.67;100.00;97921.97;2603215;28;20048;-93
2022/08/27 04:23:25;;;;;;;17.00;11.07;;;;;;;18.67;100.00;97924.63;2603823;28;20136;-92
2022/08/27 04:24:41;;;;;;;15.63;10.55;;;;;;;18.64;100.00;97925.69;2602884;28;20419;-93
2022/08/27 04:25:57;;;;;;;17.05;10.55;;;;;;;18.67;100.00;97925.47;2604497;28;20052;-92
2022/08/27 04:27:14;;;;;;;19.13;11.77;;;;;;;18.71;100.00;97924.28;2602811;28;20053;-92
2022/08/27 04:28:30;;;;;;;16.23;10.63;;;;;;;18.69;100.00;97922.72;2604899;28;20059;-93
2022/08/27 04:29:46;;;;;;;15.70;9.50;;;;;;;18.67;100.00;97925.47;2603031;28;20191;-92
2022/08/27 04:31:02;;;;;;;16.30;10.40;;;;;;;18.68;100.00;97923.69;2602734;28;20049;-92
2022/08/27 04:32:18;;;;;;;18.38;11.27;;;;;;;18.69;100.00;97920.91;2602379;28;20491;-93
2022/08/27 04:33:34;;;;;;;17.92;10.68;;;;;;;18.67;100.00;97927.28;2604190;28;20148;-93
2022/08/27 04:34:58;;;;;;;19.08;10.82;;;;;;;18.63;100.00;97929.28;2602958;28;20119;-93
2022/08/27 04:36:14;;;;;;;15.75;10.23;;;;;;;18.61;100.00;97926.75;2604157;28;20057;-92
2022/08/27 04:37:31;;;;;;;15.50;9.25;;;;;;;18.60;100.00;97924.22;2602999;28;20049;-92
2022/08/27 04:38:47;;;;;;;16.67;10.80;;;;;;;18.62;100.00;97920.47;2604030;28;20052;-92
2022/08/27 04:40:03;;;;;;;15.88;10.07;;;;;;;18.63;100.00;97929.28;2603186;28;20049;-93
2022/08/27 04:41:20;;;;;;;14.60;9.77;;;;;;;18.64;100.00;97926.53;2603845;28;20553;-92
2022/08/27 04:42:35;;;;;;;16.08;10.68;;;;;;;18.66;100.00;97922.94;2602724;28;20052;-92
2022/08/27 04:43:54;;;;;;;15.35;9.82;;;;;;;18.67;100.00;97933.41;2602747;28;20136;-92
2022/08/27 04:45:10;;;;;;;17.63;10.45;;;;;;;18.70;100.00;97932.38;2603815;28;20493;-93
2022/08/27 04:46:29;;;;;;;16.48;10.68;;;;;;;18.70;100.00;97937.66;2603048;28;20080;-93
2022/08/27 04:47:44;;;;;;;16.27;10.73;;;;;;;18.71;100.00;97934.91;2603524;28;20052;-92
2022/08/27 04:49:04;;;;;;;15.63;10.18;;;;;;;18.74;100.00;97934.72;2603102;28;20050;-92
2022/08/27 04:50:19;;;;;;;18.75;11.15;;;;;;;18.74;100.00;97924.09;2603094;28;20547;-93
2022/08/27 04:51:36;;;;;;;17.95;10.75;;;;;;;18.65;100.00;97932.69;2602943;28;20068;-92
2022/08/27 04:52:51;;;;;;;16.85;10.68;;;;;;;18.69;100.00;97928.84;2603822;28;20136;-91
2022/08/27 04:54:07;;;;;;;18.77;11.52;;;;;;;18.71;100.00;97921.63;2603244;28;20487;-93
2022/08/27 04:55:23;;;;;;;17.38;10.55;;;;;;;18.71;100.00;97924.28;2603055;28;20415;-92
2022/08/27 04:56:39;;;;;;;18.48;11.70;;;;;;;18.71;100.00;97921.63;2602559;28;20131;-92
2022/08/27 04:57:54;;;;;;;16.42;11.13;;;;;;;18.72;100.00;97927.81;2603341;28;20064;-92
2022/08/27 04:59:11;;;;;;;17.20;10.98;;;;;;;18.67;100.00;97930.78;2602888;28;20063;-92
2022/08/27 05:00:26;;;;;;;17.85;11.02;;;;;;;18.69;100.00;97930.69;2603969;28;20550;-92
2022/08/27 05:01:42;;;;;;;17.83;11.65;;;;;;;18.70;100.00;97925.25;2604525;28;20053;-93
2022/08/27 05:02:58;;;;;;;19.52;12.50;;;;;;;18.71;100.00;97924.28;2606219;28;20060;-91
2022/08/27 05:04:15;;;;;;;21.58;12.05;;;;;;;18.75;100.00;97928.44;2603413;28;20920;-92
2022/08/27 05:05:31;;;;;;;20.00;11.48;;;;;;;18.77;100.00;97929.19;2605756;28;20471;-92
2022/08/27 05:06:48;;;;;;;23.75;12.80;;;;;;;18.79;100.00;97923.78;2603686;28;20492;-93
2022/08/27 05:08:05;;;;;;;21.75;12.73;;;;;;;18.73;100.00;97933.00;2605021;28;20071;-92
2022/08/27 05:09:20;;;;;;;21.23;12.23;;;;;;;18.69;100.00;97928.03;2605056;28;20072;-92
2022/08/27 05:10:41;;;;;;;20.85;12.73;;;;;;;18.63;100.00;97935.44;2606118;28;20060;-92
2022/08/27 05:11:57;;;;;;;20.25;12.10;;;;;;;18.61;100.00;97931.22;2604485;28;20530;-92
2022/08/27 05:13:14;;;;;;;20.60;12.98;;;;;;;18.63;100.00;97929.28;2605643;28;20117;-93
2022/08/27 05:14:31;;;;;;;21.90;13.20;;;;;;;18.59;100.00;97933.13;2604674;28;20310;-92
2022/08/27 05:15:46;;;;;;;18.67;12.75;;;;;;;18.57;100.00;97925.25;2605098;28;20049;-91
2022/08/27 05:17:02;;;;;;;24.33;12.23;;;;;;;18.62;100.00;97924.94;2605489;28;20152;-93
2022/08/27 05:18:18;;;;;;;21.70;12.95;;;;;;;18.61;100.00;97925.91;2604382;28;20053;-92
2022/08/27 05:19:33;;;;;;;22.08;13.02;;;;;;;18.59;100.00;97920.69;2606389;28;20423;-92
2022/08/27 05:20:49;;;;;;;21.40;12.55;;;;;;;18.60;100.00;97924.22;2604308;28;20419;-93
2022/08/27 05:22:04;;;;;;;20.58;12.18;;;;;;;18.62;100.00;97919.66;2605992;28;20056;-92
2022/08/27 05:23:20;;;;;;;20.95;12.25;;;;;;;18.68;100.00;97921.84;2604672;28;20060;-92
2022/08/27 05:24:36;;;;;;;21.10;12.73;;;;;;;18.69;100.00;97923.56;2606077;28;20112;-94
2022/08/27 05:25:52;;;;;;;21.60;13.40;;;;;;;18.66;100.00;97923.78;2604441;28;20049;-92
2022/08/27 05:27:08;;;;;;;20.85;11.93;;;;;;;18.69;100.00;97920.06;2605733;28;20061;-93
2022/08/27 05:28:26;;;;;;;18.80;12.25;;;;;;;18.71;100.00;97924.28;2604320;28;20280;-93
2022/08/27 05:29:41;;;;;;;21.83;12.60;;;;;;;18.74;100.00;97926.75;2606268;28;20739;-93
2022/08/27 05:31:04;;;;;;;19.55;12.35;;;;;;;18.78;100.00;97922.91;2604508;28;20055;-93
2022/08/27 05:32:20;;;;;;;20.63;12.90;;;;;;;18.70;100.00;97919.94;2605996;28;20053;-93
2022/08/27 05:33:37;;;;;;;22.02;13.02;;;;;;;18.77;100.00;97921.22;2604499;28;20054;-92
2022/08/27 05:34:52;;;;;;;20.55;11.95;;;;;;;18.74;100.00;97923.22;2606277;28;20057;-93
2022/08/27 05:36:15;;;;;;;18.75;12.20;;;;;;;18.76;100.00;97921.31;2604318;28;20060;-93
2022/08/27 05:37:32;;;;;;;21.30;12.95;;;;;;;18.73;100.00;97922.41;2605235;28;20056;-93
2022/08/27 05:38:49;;;;;;;21.65;12.93;;;;;;;18.78;100.00;97916.75;2603943;28;20164;-92
2022/08/27 05:40:05;;;;;;;21.80;12.70;;;;;;;18.78;100.00;97922.06;2606137;28;20435;-93
2022/08/27 05:41:26;;;;;;;21.52;12.73;;;;;;;18.83;100.00;97927.91;2604279;28;20098;-91
2022/08/27 05:42:42;;;;;;;21.27;12.82;;;;;;;18.83;100.00;97925.25;2605865;28;20702;-92
2022/08/27 05:44:00;;;;;;;20.65;12.93;;;;;;;18.80;100.00;97933.44;2605225;28;20049;-92
2022/08/27 05:45:16;;;;;;;23.08;12.73;;;;;;;18.76;100.00;97927.47;2605100;28;20056;-93
2022/08/27 05:46:31;;;;;;;23.45;12.57;;;;;;;18.81;100.00;97935.13;2604550;28;20555;-91
2022/08/27 05:47:47;;;;;;;21.23;12.55;;;;;;;18.95;100.00;97933.31;2605574;28;20459;-90
2022/08/27 05:49:03;;;;;;;21.70;12.70;;;;;;;19.00;100.00;97932.06;2604581;28;20200;-91
2022/08/27 05:50:19;;;;;;;20.33;12.63;;;;;;;19.06;100.00;97933.41;2604367;28;20049;-93
2022/08/27 05:51:35;;;;;;;20.60;12.70;;;;;;;19.09;100.00;97935.84;2605661;28;20538;-92
2022/08/27 05:52:51;;;;;;;21.60;12.55;;;;;;;19.11;100.00;97938.38;2604020;28;20488;-91
2022/08/27 05:54:13;;;;;;;19.40;11.35;;;;;;;19.11;100.00;97933.06;2605818;28;20082;-92